Bell Gardens, California
Current Conditions -  °F | °C
As of 7:47 AM on Thursday 30 Oct 2014 (Local Time) from KCQT Reporting Station
Clear Clear  
Wind Chill: 61°   Ceiling: Unl
Heat Index: 61°   Visibility: 10mi
Dew Point: 53°   Wind: 0mph
Humidity: 75%   Direction: NA
Pressure: 29.98"   Gusts: NA
Location:  33.97°N, 118.14°W
Report Text: KCQT 301447Z AUTO 00000KT 10SM CLR 16/12 A2998 RMK AO2 SLP149 T01610117 53001
Loading
Personal Weather Stations






























Interactive Weather Map
Tropical Storm Tracking
New forecast layout! Learn more

10-Day Weather Forecast

Advertisements
Track Severe Weather on mobile